Home PIREPS Pireps

Flight SLR1131

  • Submitted By: Carl Hermans
  • Departure Airport: Bruxelles National (EBBR)
  • Arrival Airport: Lamezia Terme (LICA)
  • Aircraft: B737-800 (OO-SLR)
  • Flight Time: 02.18
  • Date Submitted: 23/06/2015
  • Status: Accepted
Flight Details
Gross Revenue:
(128 load / € 0.00 per unit
€ 0.00
Fuel Cost:
(5606 fuel used @ 5.1 / unit)
€ 28,590.60

Additional Log Information:

View Log

Aircraft Used in flight is iFly 737-800 (Wide screen)
19:00 Brakes are On
19:01 Brakes are Released
19:02 You Took off @ 177 Knots and Flaps at Position 3
Departure Weather
EBBR 231620Z 33014KT 9999 FEW024TCU BKN039 14/08 Q1018 NOSIGrn
19:02 Landing Gear Up @ 185 Knots and 230 Feet
19:04 Above FL100 you need to switch of the landing lights
20:53 Above FL100 you need to switch of the landing lights
21:06 You exceeded maximum bank angle
21:07 Landing Gear Down @ 159 Knots and 1730 Feet
21:10 You Landed @ 144 Knots and with -450 Vertical Speed
Arrival Weather
LICA 231750Z 23007KT CAVOK 24/17 Q1014rn
21:13 Brakes are On
21:14 Brussels Bel-Track1.0.0.9

Route Map

Corporate About Us Our Team Vacancies Information Fleet Route Network Rules and Regulations Operations Flight Schedules Event Center Tours Partners IVAO Vatsim Acars dev FSCB

fb Users Online Belgium Marc Claus, Belgium ISMAIL SAIF , Belgium Chafik MATTAR,
3 Pilot(s) and 157 Guest(s) Online
CMS by phpVMS - Design by Crazycreatives.com - Copyright © 2018 - Brussels Airlines Virtual